Time;durP1;ratioP1;P1;durP2;ratioP2;P2;SDS_P1;SDS_P2;PMS_P1;PMS_P2;Temp;Humidity;BMP_temperature;BMP_pressure;BME280_temperature;BME280_humidity;BME280_pressure;Samples;Min_cycle;Max_cycle;Signal;HPM_P1;HPM_P2
2021/12/21 00:00:12;;;;;;;18.53;10.17;;;-0.50;99.90;;;;;;5028685;28;20032;-70
2021/12/21 00:02:42;;;;;;;21.77;11.50;;;-0.30;99.90;;;;;;5029503;28;20323;-70
2021/12/21 00:05:13;;;;;;;17.73;8.87;;;-0.50;99.90;;;;;;5036899;28;20075;-70
2021/12/21 00:07:39;;;;;;;18.57;9.07;;;-0.40;99.90;;;;;;5048670;28;20048;-70
2021/12/21 00:10:04;;;;;;;16.77;9.57;;;-0.50;99.90;;;;;;5048337;28;20025;-70
2021/12/21 00:12:33;;;;;;;15.40;9.73;;;-0.30;99.90;;;;;;5038617;28;20205;-70
2021/12/21 00:15:06;;;;;;;19.03;10.10;;;;;;;;;;5047893;28;20092;-70
2021/12/21 00:25:21;;;;;;;16.07;9.03;;;-0.70;99.90;;;;;;5029137;28;20386;-70
2021/12/21 00:27:48;;;;;;;12.73;8.60;;;;;;;;;;5029390;28;20036;-70
2021/12/21 00:30:15;;;;;;;20.50;8.97;;;-0.80;99.90;;;;;;5028543;28;20029;-70
2021/12/21 00:32:41;;;;;;;17.80;9.97;;;-0.70;99.90;;;;;;5029346;28;20076;-70
2021/12/21 00:35:09;;;;;;;21.50;10.40;;;-1.00;99.90;;;;;;5033874;28;20021;-70
2021/12/21 00:37:36;;;;;;;12.67;8.23;;;-0.80;99.90;;;;;;5048290;28;20811;-70
2021/12/21 00:40:03;;;;;;;11.30;7.17;;;-0.90;99.90;;;;;;5048152;28;20025;-70
2021/12/21 00:42:28;;;;;;;23.73;11.20;;;-0.70;99.90;;;;;;5047963;28;20489;-70
2021/12/21 00:44:54;;;;;;;35.27;14.63;;;-0.80;99.90;;;;;;5047809;28;20112;-70
2021/12/21 00:47:20;;;;;;;19.87;10.13;;;;;;;;;;5047784;28;20116;-70
2021/12/21 00:49:47;;;;;;;17.37;9.63;;;-1.00;99.90;;;;;;5046848;28;20029;-70
2021/12/21 00:52:15;;;;;;;18.37;10.50;;;-0.90;99.90;;;;;;5038052;28;20175;-70
2021/12/21 00:54:41;;;;;;;17.37;9.97;;;-0.90;99.90;;;;;;5029004;28;20040;-70
2021/12/21 00:57:08;;;;;;;22.03;10.07;;;-1.10;99.90;;;;;;5029049;28;20022;-70
2021/12/21 00:59:34;;;;;;;18.13;10.13;;;-1.10;99.90;;;;;;5028280;28;20029;-70
2021/12/21 01:02:00;;;;;;;19.97;11.03;;;-1.00;99.90;;;;;;5028910;28;20041;-70
2021/12/21 01:04:32;;;;;;;18.77;10.53;;;-0.90;99.90;;;;;;5028767;28;20494;-70
2021/12/21 01:09:58;;;;;;;12.27;9.10;;;-0.80;99.90;;;;;;5047532;28;20032;-70
2021/12/21 01:12:26;;;;;;;20.97;10.53;;;;;;;;;;5051026;28;20040;-70
2021/12/21 01:17:27;;;;;;;19.53;10.70;;;-0.90;99.90;;;;;;5051523;28;20040;-70
2021/12/21 01:20:13;;;;;;;18.50;11.60;;;-0.80;99.90;;;;;;5045510;28;20051;-70
2021/12/21 01:27:58;;;;;;;18.67;9.30;;;-1.00;99.90;;;;;;5032094;28;20497;-70
2021/12/21 01:30:50;;;;;;;15.40;9.50;;;-1.10;99.90;;;;;;5032259;28;20482;-70
2021/12/21 01:33:35;;;;;;;16.80;9.63;;;-1.00;99.90;;;;;;5032062;28;20474;-70
2021/12/21 01:36:04;;;;;;;40.63;19.23;;;-1.10;99.90;;;;;;5043370;28;20547;-70
2021/12/21 01:38:46;;;;;;;32.00;17.50;;;-1.10;99.90;;;;;;5051316;28;20025;-70
2021/12/21 01:41:28;;;;;;;29.63;15.73;;;;;;;;;;5027209;28;20017;-70
2021/12/21 01:44:10;;;;;;;26.87;12.73;;;-0.80;99.90;;;;;;5032278;28;20018;-70
2021/12/21 01:49:38;;;;;;;18.20;11.18;;;;;;;;;;5031896;28;20031;-70
2021/12/21 01:52:15;;;;;;;19.30;10.73;;;-0.60;99.90;;;;;;5031781;28;20406;-70
2021/12/21 01:54:41;;;;;;;15.70;10.17;;;-1.10;99.90;;;;;;5032082;28;20159;-70
2021/12/21 01:57:07;;;;;;;23.27;11.47;;;-1.00;99.90;;;;;;5031492;28;20048;-70
2021/12/21 01:59:34;;;;;;;19.73;10.23;;;-1.20;99.90;;;;;;5030412;28;20037;-70
2021/12/21 02:02:00;;;;;;;17.43;9.80;;;-1.00;99.90;;;;;;5031837;28;20097;-70
2021/12/21 02:04:26;;;;;;;17.53;9.60;;;;;;;;;;5031418;28;20108;-70
2021/12/21 02:06:52;;;;;;;16.97;10.53;;;;;;;;;;5048136;28;20029;-70
2021/12/21 02:09:19;;;;;;;19.70;9.53;;;;;;;;;;5050580;28;20500;-70
2021/12/21 02:11:48;;;;;;;17.90;9.57;;;-1.10;99.90;;;;;;5050303;28;20021;-69
2021/12/21 02:14:15;;;;;;;14.67;8.90;;;-1.30;99.90;;;;;;5050408;28;20059;-70
2021/12/21 02:17:00;;;;;;;20.93;9.90;;;-1.30;99.90;;;;;;5050825;28;20466;-70
2021/12/21 02:19:38;;;;;;;36.30;18.67;;;-1.30;99.90;;;;;;5048352;28;20438;-70
2021/12/21 02:22:11;;;;;;;24.63;13.07;;;-1.30;99.90;;;;;;5025563;28;20402;-70
2021/12/21 02:24:58;;;;;;;19.13;11.07;;;;;;;;;;5031077;28;20497;-69
2021/12/21 02:27:29;;;;;;;21.93;10.90;;;-1.30;99.90;;;;;;5031281;28;20255;-70
2021/12/21 02:29:55;;;;;;;21.30;11.27;;;-1.10;99.90;;;;;;5031597;28;20028;-70
2021/12/21 02:32:22;;;;;;;23.40;12.93;;;-1.20;99.90;;;;;;5029527;28;20029;-70
2021/12/21 02:34:48;;;;;;;22.30;13.73;;;;;;;;;;5034693;28;20104;-68
2021/12/21 02:37:14;;;;;;;24.20;13.60;;;-1.10;99.90;;;;;;5042614;28;20488;-70
2021/12/21 02:39:40;;;;;;;21.13;12.67;;;;;;;;;;5030701;28;20056;-68
2021/12/21 02:42:07;;;;;;;19.83;12.03;;;-1.30;99.90;;;;;;5031179;28;20032;-70
2021/12/21 02:44:33;;;;;;;27.00;13.73;;;-1.20;99.90;;;;;;5030848;28;20037;-70
2021/12/21 02:46:59;;;;;;;33.37;15.80;;;;;;;;;;5030796;28;20200;-70
2021/12/21 02:49:25;;;;;;;31.00;18.53;;;-1.30;99.90;;;;;;5030723;28;20532;-70
2021/12/21 02:51:50;;;;;;;31.77;17.63;;;-1.40;99.90;;;;;;5031990;28;20120;-70
2021/12/21 02:54:18;;;;;;;27.20;15.03;;;-1.10;99.90;;;;;;5048297;28;20086;-70
2021/12/21 02:56:44;;;;;;;23.63;13.97;;;-1.30;99.90;;;;;;5049013;28;20032;-70
2021/12/21 02:59:10;;;;;;;25.90;13.77;;;-1.40;99.90;;;;;;5048751;28;20366;-70
2021/12/21 03:01:37;;;;;;;25.70;14.83;;;-1.10;99.90;;;;;;5047236;28;20161;-70
2021/12/21 03:04:03;;;;;;;28.80;16.70;;;-1.10;99.90;;;;;;5043986;28;20032;-69
2021/12/21 03:07:06;;;;;;;28.13;17.37;;;-1.00;99.90;;;;;;5046351;28;20041;-70
2021/12/21 03:14:35;;;;;;;27.43;14.43;;;-0.90;99.90;;;;;;5048396;28;20584;-70
2021/12/21 03:17:01;;;;;;;27.87;14.67;;;;;;;;;;5048509;28;20501;-70
2021/12/21 03:19:26;;;;;;;30.17;13.63;;;-1.00;99.90;;;;;;5022651;28;20034;-70
2021/12/21 03:21:53;;;;;;;22.57;12.97;;;-1.00;99.90;;;;;;5041662;28;20025;-70
2021/12/21 03:24:19;;;;;;;20.93;12.53;;;-1.70;99.90;;;;;;5047576;28;20036;-70
2021/12/21 03:26:45;;;;;;;23.27;12.23;;;-1.40;99.90;;;;;;5048138;28;20041;-69
2021/12/21 03:29:11;;;;;;;20.27;11.83;;;-1.30;99.90;;;;;;5045668;28;20671;-70
2021/12/21 03:31:37;;;;;;;17.67;11.07;;;;;;;;;;5046158;28;20028;-70
2021/12/21 03:34:03;;;;;;;16.67;11.40;;;-1.10;99.90;;;;;;5036005;28;20032;-70
2021/12/21 03:36:29;;;;;;;19.87;10.47;;;-1.50;99.90;;;;;;5028336;28;20025;-68
2021/12/21 03:39:04;;;;;;;23.63;14.40;;;-1.40;99.90;;;;;;5026058;28;20099;-68
2021/12/21 03:41:31;;;;;;;21.67;13.57;;;-1.40;99.90;;;;;;5028940;28;20116;-70
2021/12/21 03:44:00;;;;;;;19.70;11.07;;;;;;;;;;5029093;28;20057;-70
2021/12/21 03:46:26;;;;;;;16.03;11.87;;;-1.40;99.90;;;;;;5028877;28;20037;-70
2021/12/21 03:48:52;;;;;;;22.73;12.60;;;-1.40;99.90;;;;;;5033965;28;20079;-70
2021/12/21 03:51:19;;;;;;;33.10;17.83;;;-1.50;99.90;;;;;;5012456;28;1010571;-70
2021/12/21 03:53:48;;;;;;;40.77;21.60;;;-1.00;99.90;;;;;;5048258;28;20029;-70
2021/12/21 03:56:38;;;;;;;30.80;19.87;;;-1.20;99.90;;;;;;5047603;28;20033;-70
2021/12/21 03:59:03;;;;;;;27.23;16.93;;;-1.40;99.90;;;;;;5048623;28;20197;-70
2021/12/21 04:01:29;;;;;;;35.80;20.93;;;;;;;;;;5048466;28;20466;-70
2021/12/21 04:03:55;;;;;;;29.13;16.03;;;;;;;;;;5038695;28;20037;-70
2021/12/21 04:06:21;;;;;;;27.50;16.43;;;;;;;;;;5028358;28;20116;-70
2021/12/21 04:08:47;;;;;;;24.03;14.07;;;-1.30;99.90;;;;;;5029476;28;20108;-68
2021/12/21 04:11:13;;;;;;;22.13;14.87;;;;;;;;;;5028977;28;20397;-68
2021/12/21 04:13:38;;;;;;;21.60;11.57;;;-1.60;99.90;;;;;;5030323;28;20021;-70
2021/12/21 04:16:05;;;;;;;29.10;14.33;;;-1.50;99.90;;;;;;5048294;28;20029;-70
2021/12/21 04:18:37;;;;;;;20.10;12.93;;;-1.60;99.90;;;;;;5048089;28;20013;-70
2021/12/21 04:21:04;;;;;;;18.33;12.73;;;-1.70;99.90;;;;;;5041556;28;20029;-70
2021/12/21 04:23:30;;;;;;;24.57;13.63;;;;;;;;;;5022816;28;20405;-70
2021/12/21 04:25:56;;;;;;;22.77;13.17;;;-1.80;99.90;;;;;;5022223;28;20108;-71
2021/12/21 04:28:22;;;;;;;22.13;13.33;;;;;;;;;;5038514;28;20116;-70
2021/12/21 04:30:47;;;;;;;28.90;13.70;;;-1.80;99.90;;;;;;5027770;28;20033;-69
2021/12/21 04:33:13;;;;;;;19.90;13.27;;;;;;;;;;5040874;28;20033;-70
2021/12/21 04:35:39;;;;;;;25.13;12.67;;;-1.80;99.90;;;;;;5045135;28;20086;-70
2021/12/21 04:38:21;;;;;;;21.70;13.17;;;-1.90;99.90;;;;;;5028946;28;20083;-69
2021/12/21 04:40:55;;;;;;;22.00;12.63;;;-2.10;99.90;;;;;;5029224;28;20053;-70
2021/12/21 04:43:21;;;;;;;18.77;12.33;;;-1.80;99.90;;;;;;5040496;28;20017;-70
2021/12/21 04:45:47;;;;;;;23.20;12.27;;;;;;;;;;5032286;28;20103;-70
2021/12/21 04:48:13;;;;;;;17.50;12.77;;;;;;;;;;5032490;28;20037;-71
2021/12/21 04:50:40;;;;;;;22.93;13.47;;;-1.90;99.90;;;;;;5032623;28;20021;-70
2021/12/21 04:53:06;;;;;;;28.50;13.33;;;-2.20;99.90;;;;;;5032911;28;20050;-71
2021/12/21 04:55:32;;;;;;;19.03;12.07;;;;;;;;;;5032617;28;20485;-70
2021/12/21 04:57:58;;;;;;;15.33;12.93;;;;;;;;;;5032532;28;20588;-70
2021/12/21 05:00:24;;;;;;;18.10;12.00;;;;;;;;;;5051383;28;20039;-70
2021/12/21 05:02:49;;;;;;;16.30;12.27;;;-2.20;99.90;;;;;;5051997;28;20475;-70
2021/12/21 05:05:15;;;;;;;23.70;13.93;;;-2.30;99.90;;;;;;5049984;28;20021;-70
2021/12/21 05:07:44;;;;;;;22.03;14.87;;;;;;;;;;5051767;28;20091;-70
2021/12/21 05:10:11;;;;;;;21.77;14.13;;;-2.10;99.90;;;;;;5051923;28;20025;-70
2021/12/21 05:12:37;;;;;;;20.53;15.03;;;;;;;;;;5051832;28;20025;-70
2021/12/21 05:15:05;;;;;;;20.40;14.10;;;-2.20;99.90;;;;;;5041634;28;20174;-71
2021/12/21 05:17:32;;;;;;;19.50;13.80;;;-2.30;99.90;;;;;;5047860;28;20116;-70
2021/12/21 05:19:57;;;;;;;17.57;12.93;;;-2.10;99.90;;;;;;5032214;28;20071;-71
2021/12/21 05:22:24;;;;;;;21.47;14.60;;;;;;;;;;5032393;28;20038;-70
2021/12/21 05:24:51;;;;;;;24.73;14.60;;;;;;;;;;5032737;28;20035;-70
2021/12/21 05:27:16;;;;;;;22.83;15.33;;;-2.10;99.90;;;;;;5032216;28;20034;-70
2021/12/21 05:29:43;;;;;;;26.13;15.43;;;;;;;;;;5042926;28;20091;-71
2021/12/21 05:32:08;;;;;;;23.27;13.90;;;-2.30;99.90;;;;;;5039432;28;20099;-71
2021/12/21 05:34:34;;;;;;;26.07;14.50;;;-2.20;99.90;;;;;;5031774;28;20458;-70
2021/12/21 05:37:05;;;;;;;22.87;14.37;;;-2.40;99.90;;;;;;5030883;28;20422;-70
2021/12/21 05:39:39;;;;;;;28.53;14.80;;;;;;;;;;5035862;28;20022;-70
2021/12/21 05:42:05;;;;;;;22.07;14.10;;;-2.50;99.90;;;;;;5051325;28;20070;-70
2021/12/21 05:44:31;;;;;;;26.93;14.93;;;;;;;;;;5051242;28;20517;-70
2021/12/21 05:46:58;;;;;;;27.23;15.57;;;-2.30;99.90;;;;;;5051382;28;20123;-70
2021/12/21 05:49:23;;;;;;;29.70;15.13;;;-2.40;99.90;;;;;;5050570;28;20017;-70
2021/12/21 05:51:49;;;;;;;25.27;14.50;;;-2.20;99.90;;;;;;5050898;28;20056;-70
2021/12/21 05:54:18;;;;;;;21.57;14.33;;;-2.20;99.90;;;;;;5047383;28;20492;-70
2021/12/21 05:56:44;;;;;;;21.30;14.03;;;-2.20;99.90;;;;;;5031721;28;20104;-70
2021/12/21 05:59:10;;;;;;;22.43;15.33;;;-2.40;99.90;;;;;;5032062;28;20108;-70
2021/12/21 06:01:36;;;;;;;26.10;14.93;;;;;;;;;;5034894;28;20107;-70
2021/12/21 06:04:02;;;;;;;22.47;15.30;;;-2.20;99.90;;;;;;5050539;28;20025;-70
2021/12/21 06:06:30;;;;;;;21.80;14.33;;;-2.30;99.90;;;;;;5050733;28;20469;-70
2021/12/21 06:08:58;;;;;;;25.17;15.70;;;-2.20;99.90;;;;;;5051045;28;20021;-70
2021/12/21 06:11:23;;;;;;;23.00;14.67;;;-2.30;99.90;;;;;;5050601;28;20032;-70
2021/12/21 06:27:23;;;;;;;33.90;18.33;;;-2.50;99.90;;;;;;5030780;28;20040;-70
2021/12/21 06:29:49;;;;;;;31.00;19.37;;;-2.30;99.90;;;;;;5031232;28;20029;-70
2021/12/21 06:32:15;;;;;;;48.77;28.47;;;-2.30;99.90;;;;;;5029719;28;20348;-70
2021/12/21 06:34:41;;;;;;;67.70;38.03;;;-2.10;99.90;;;;;;5031275;28;20415;-70
2021/12/21 06:37:07;;;;;;;62.87;35.27;;;-2.10;99.90;;;;;;5031057;28;20026;-70
2021/12/21 06:39:33;;;;;;;65.77;36.47;;;-2.00;99.90;;;;;;5029535;28;20079;-70
2021/12/21 06:42:00;;;;;;;69.37;41.33;;;-1.80;99.90;;;;;;5030903;28;20034;-70
2021/12/21 06:44:26;;;;;;;55.93;33.23;;;-1.50;99.90;;;;;;5030760;28;20041;-70
2021/12/21 06:51:08;;;;;;;64.83;34.47;;;-1.60;99.90;;;;;;5030086;28;20432;-71
2021/12/21 06:52:34;;;;;;;57.58;36.85;;;-1.50;99.90;;;;;;5030482;28;20099;-70
2021/12/21 06:55:00;;;;;;;55.93;32.50;;;;;;;;;;5030546;28;20045;-71
2021/12/21 06:57:26;;;;;;;64.67;36.13;;;-1.30;99.90;;;;;;5029761;28;20029;-71
2021/12/21 06:59:52;;;;;;;60.97;34.30;;;-1.60;99.90;;;;;;5030386;28;20061;-70
2021/12/21 07:02:18;;;;;;;51.03;32.17;;;;;;;;;;5029624;28;20068;-70
2021/12/21 07:04:44;;;;;;;47.57;29.40;;;-1.50;99.90;;;;;;5030267;28;20053;-70
2021/12/21 07:07:10;;;;;;;54.00;33.87;;;-1.30;99.90;;;;;;5027812;28;20192;-70
2021/12/21 07:09:43;;;;;;;58.13;36.13;;;-1.30;99.90;;;;;;5029887;28;20463;-70
2021/12/21 07:20:01;;;;;;;62.47;32.27;;;;;;;;;;5050818;28;20041;-73
2021/12/21 07:22:27;;;;;;;50.33;29.90;;;-1.30;99.90;;;;;;5066135;28;20029;-73
2021/12/21 07:24:53;;;;;;;44.60;29.27;;;;;;;;;;5051135;28;20028;-73
2021/12/21 07:27:18;;;;;;;51.77;31.47;;;-1.40;99.90;;;;;;5066632;28;20211;-73
2021/12/21 07:29:44;;;;;;;40.20;24.93;;;-1.50;99.90;;;;;;5070537;28;20032;-73
2021/12/21 07:32:09;;;;;;;36.83;22.50;;;-1.60;99.90;;;;;;5070879;28;20389;-73
2021/12/21 07:34:35;;;;;;;38.50;23.53;;;-1.80;99.90;;;;;;5070492;28;20460;-73
2021/12/21 07:37:02;;;;;;;35.40;23.17;;;;;;;;;;5070651;28;20465;-73
2021/12/21 07:39:28;;;;;;;29.53;21.37;;;;;;;;;;5070569;28;20020;-73
2021/12/21 07:41:54;;;;;;;32.67;20.97;;;-1.80;99.90;;;;;;5070728;28;20488;-73
2021/12/21 07:44:19;;;;;;;31.93;20.63;;;-1.90;99.90;;;;;;5069540;28;20477;-73
2021/12/21 07:46:44;;;;;;;34.37;21.97;;;-1.90;99.90;;;;;;5070376;28;20431;-73
2021/12/21 07:49:10;;;;;;;34.93;21.50;;;-2.00;99.90;;;;;;5055614;28;20044;-73
2021/12/21 07:51:36;;;;;;;32.73;22.30;;;-1.90;99.90;;;;;;5050019;28;20025;-73
2021/12/21 07:54:02;;;;;;;34.77;21.07;;;-1.90;99.90;;;;;;5050445;28;20063;-73
2021/12/21 07:56:28;;;;;;;37.43;23.23;;;;;;;;;;5050263;28;20036;-73
2021/12/21 07:58:54;;;;;;;29.67;20.83;;;;;;;;;;5051190;28;20028;-72
2021/12/21 08:01:20;;;;;;;32.47;21.53;;;;;;;;;;5068428;28;20038;-73
2021/12/21 08:03:46;;;;;;;30.60;21.57;;;;;;;;;;5062381;28;20719;-73
2021/12/21 08:06:13;;;;;;;34.97;22.00;;;;;;;;;;5047631;28;20032;-73
2021/12/21 08:08:40;;;;;;;30.20;20.47;;;-3.20;99.90;;;;;;5056135;28;20538;-70
2021/12/21 08:11:28;;;;;;;33.13;19.53;;;-2.20;99.90;;;;;;5056691;28;20048;-70
2021/12/21 08:13:54;;;;;;;33.40;21.50;;;-2.20;99.90;;;;;;5052916;28;20036;-70
2021/12/21 08:16:19;;;;;;;33.87;22.30;;;-2.20;99.90;;;;;;5049349;28;20017;-71
2021/12/21 08:18:45;;;;;;;28.83;16.87;;;-2.00;99.90;;;;;;5060640;28;20039;-71
2021/12/21 08:21:15;;;;;;;39.60;22.03;;;-2.00;99.90;;;;;;5070022;28;20389;-71
2021/12/21 08:23:41;;;;;;;31.57;21.30;;;;;;;;;;5070121;28;20032;-71
2021/12/21 08:26:07;;;;;;;32.40;19.43;;;-2.20;99.90;;;;;;5063746;28;20021;-71
2021/12/21 08:28:32;;;;;;;41.80;22.73;;;-2.00;99.90;;;;;;5058911;28;20060;-71
2021/12/21 08:30:58;;;;;;;43.50;24.23;;;-2.00;99.90;;;;;;5060558;28;20017;-71
2021/12/21 08:33:24;;;;;;;68.03;37.33;;;-1.90;99.90;;;;;;5059974;28;20103;-70
2021/12/21 08:35:49;;;;;;;54.93;33.47;;;-1.80;99.90;;;;;;5055593;28;20040;-71
2021/12/21 08:38:18;;;;;;;51.77;33.47;;;-2.00;99.90;;;;;;5049086;28;20025;-70
2021/12/21 08:40:48;;;;;;;87.57;47.77;;;-1.60;99.90;;;;;;5066743;28;20073;-71
2021/12/21 08:43:17;;;;;;;63.23;38.33;;;-1.50;99.90;;;;;;5060496;28;20150;-70
2021/12/21 08:45:45;;;;;;;75.43;43.03;;;-1.40;99.90;;;;;;5061741;28;20034;-70
2021/12/21 08:48:12;;;;;;;76.70;44.87;;;-1.30;99.90;;;;;;5068205;28;20550;-70
2021/12/21 08:50:38;;;;;;;67.83;42.23;;;;;;;;;;5059493;28;20052;-71
2021/12/21 08:53:04;;;;;;;65.97;36.93;;;;;;;;;;5065080;28;20024;-72
2021/12/21 08:55:31;;;;;;;73.33;41.27;;;;;;;;;;5069076;28;20024;-72
2021/12/21 08:57:56;;;;;;;62.17;35.07;;;-0.90;99.90;;;;;;5069105;28;20213;-71
2021/12/21 09:00:22;;;;;;;54.60;33.10;;;-1.00;99.90;;;;;;5067321;28;20411;-71
2021/12/21 09:02:49;;;;;;;63.50;35.10;;;;;;;;;;5049623;28;20033;-71
2021/12/21 09:05:18;;;;;;;64.47;36.30;;;;;;;;;;5075184;28;20020;-71
2021/12/21 09:07:48;;;;;;;56.87;35.70;;;-1.00;99.90;;;;;;5089719;28;20036;-71
2021/12/21 09:10:16;;;;;;;54.87;32.33;;;-0.80;99.90;;;;;;5071984;28;20034;-71
2021/12/21 09:12:42;;;;;;;46.27;30.17;;;-0.80;99.90;;;;;;5068713;28;20504;-70
2021/12/21 09:15:09;;;;;;;49.20;31.50;;;-0.90;99.90;;;;;;5068101;28;20051;-70
2021/12/21 09:17:35;;;;;;;52.80;29.03;;;;;;;;;;5066097;28;20544;-70
2021/12/21 09:20:01;;;;;;;60.00;34.63;;;-0.90;99.90;;;;;;5068169;28;20024;-71
2021/12/21 09:22:26;;;;;;;60.30;36.17;;;-0.60;99.90;;;;;;5067742;28;20115;-71
2021/12/21 09:24:52;;;;;;;47.87;32.27;;;;;;;;;;5069231;28;20024;-71
2021/12/21 09:27:19;;;;;;;54.47;33.17;;;-0.70;99.90;;;;;;5068084;28;20047;-71
2021/12/21 09:29:45;;;;;;;48.70;30.03;;;-0.50;99.90;;;;;;5069203;28;20107;-71
2021/12/21 09:32:13;;;;;;;51.13;29.23;;;-0.70;99.90;;;;;;5072481;28;20079;-71
2021/12/21 09:34:44;;;;;;;45.33;27.90;;;-0.50;99.90;;;;;;5071632;28;20032;-71
2021/12/21 09:37:14;;;;;;;40.93;26.57;;;-0.60;99.90;;;;;;5072747;28;20028;-71
2021/12/21 09:39:42;;;;;;;45.17;28.63;;;-0.50;99.90;;;;;;5072149;28;20029;-70
2021/12/21 09:42:10;;;;;;;43.77;27.63;;;-0.50;99.90;;;;;;5063830;28;20384;-71
2021/12/21 09:44:36;;;;;;;47.37;29.70;;;;;;;;;;5070908;28;20031;-71
2021/12/21 09:47:01;;;;;;;60.73;35.03;;;-0.30;99.90;;;;;;5072641;28;20399;-71
2021/12/21 09:49:27;;;;;;;49.30;30.80;;;;;;;;;;5072535;28;20036;-71
2021/12/21 09:51:53;;;;;;;60.10;37.83;;;-0.20;99.90;;;;;;5072632;28;20477;-72
2021/12/21 09:54:19;;;;;;;57.10;34.73;;;-0.30;99.90;;;;;;5071662;28;20033;-71
2021/12/21 09:56:44;;;;;;;56.17;31.57;;;-0.30;99.90;;;;;;5072417;28;20024;-70
2021/12/21 09:59:10;;;;;;;58.10;34.03;;;0.00;99.90;;;;;;5055848;28;20029;-69
2021/12/21 10:01:36;;;;;;;46.33;29.87;;;;;;;;;;5063062;28;20036;-70
2021/12/21 10:04:02;;;;;;;49.90;31.70;;;;;;;;;;5071537;28;20036;-70
2021/12/21 10:06:28;;;;;;;51.93;34.57;;;0.10;99.90;;;;;;5065069;28;20036;-70
2021/12/21 10:09:05;;;;;;;51.47;33.17;;;-0.20;99.90;;;;;;5061742;28;20035;-70
2021/12/21 10:11:41;;;;;;;49.63;33.07;;;-0.10;99.90;;;;;;5059425;28;20138;-70
2021/12/21 10:14:07;;;;;;;52.03;33.10;;;0.10;99.90;;;;;;5072306;28;20051;-69
2021/12/21 10:16:32;;;;;;;52.00;33.83;;;0.10;99.90;;;;;;5070267;28;20478;-70
2021/12/21 10:18:58;;;;;;;55.33;34.00;;;;;;;;;;5070438;28;20054;-70
2021/12/21 10:21:24;;;;;;;54.00;37.73;;;;;;;;;;5071333;28;20039;-70
2021/12/21 10:23:51;;;;;;;54.23;34.80;;;0.30;99.90;;;;;;5071195;28;20028;-70
2021/12/21 10:26:29;;;;;;;55.87;37.77;;;0.20;99.90;;;;;;5064162;28;20477;-70
2021/12/21 10:29:05;;;;;;;51.53;33.80;;;0.80;99.90;;;;;;5051826;28;20040;-70
2021/12/21 10:31:39;;;;;;;47.47;30.97;;;0.40;99.90;;;;;;5051291;28;20021;-70
2021/12/21 10:34:06;;;;;;;;;;;0.20;99.90;;;;;;5054930;28;20032;-76
2021/12/21 10:36:43;;;;;;;47.10;31.17;;;0.20;99.90;;;;;;5071276;28;20884;-70
2021/12/21 10:39:09;;;;;;;49.37;33.93;;;;;;;;;;5062057;28;20021;-72
2021/12/21 10:41:42;;;;;;;53.23;32.83;;;0.30;99.90;;;;;;5064030;28;20060;-72
2021/12/21 10:44:16;;;;;;;47.37;33.30;;;0.30;99.90;;;;;;5071312;28;20032;-72
2021/12/21 10:46:44;;;;;;;;;;;0.30;99.90;;;;;;5071957;28;20109;-72
2021/12/21 10:49:15;;;;;;;54.90;35.37;;;0.40;99.90;;;;;;5070901;28;19952;-72
2021/12/21 10:51:56;;;;;;;59.73;37.90;;;0.20;99.90;;;;;;5064473;28;20404;-72
2021/12/21 10:54:34;;;;;;;52.13;35.07;;;0.80;99.90;;;;;;5067392;28;20032;-73
2021/12/21 10:57:04;;;;;;;51.53;33.90;;;0.80;99.90;;;;;;5048426;22;20552;-69
2021/12/21 10:59:31;;;;;;;51.53;34.77;;;0.40;99.90;;;;;;5009050;28;20030;-69
2021/12/21 11:02:16;;;;;;;53.10;34.57;;;0.50;99.90;;;;;;5010423;28;20030;-69
2021/12/21 11:04:45;;;;;;;57.47;34.20;;;0.60;99.90;;;;;;5012638;28;20104;-69
2021/12/21 11:07:38;;;;;;;48.67;33.00;;;0.50;99.90;;;;;;5000294;28;20030;-70
2021/12/21 11:10:12;;;;;;;47.10;30.83;;;1.00;99.90;;;;;;5008605;28;20026;-70
2021/12/21 11:12:46;;;;;;;49.35;31.40;;;0.60;99.90;;;;;;5010289;28;20048;-69
2021/12/21 11:15:15;;;;;;;52.67;33.47;;;0.60;99.90;;;;;;5009355;28;20033;-70
2021/12/21 11:17:41;;;;;;;47.50;35.13;;;0.50;99.90;;;;;;5022267;28;20077;-70
2021/12/21 11:20:09;;;;;;;48.20;33.10;;;0.80;99.90;;;;;;5010996;28;20030;-70
2021/12/21 11:22:37;;;;;;;50.23;32.43;;;0.70;99.90;;;;;;5029103;28;20029;-69
2021/12/21 11:25:04;;;;;;;46.03;31.07;;;0.60;99.90;;;;;;5031221;28;20053;-70
2021/12/21 11:27:35;;;;;;;45.37;31.07;;;0.60;99.90;;;;;;5030804;28;20033;-71
2021/12/21 11:30:04;;;;;;;51.40;35.17;;;0.40;99.90;;;;;;5027623;28;20158;-71
2021/12/21 11:32:33;;;;;;;43.63;29.30;;;0.80;99.90;;;;;;5011452;28;20121;-70
2021/12/21 11:37:20;;;;;;;42.67;29.73;;;0.70;99.90;;;;;;5011046;28;20014;-70
2021/12/21 11:37:57;;;;;;;46.53;30.97;;;0.80;99.90;;;;;;5010393;28;20471;-70
2021/12/21 11:40:30;;;;;;;44.60;29.10;;;0.80;99.90;;;;;;5017836;28;20030;-71
2021/12/21 11:43:01;;;;;;;44.53;30.13;;;0.80;99.90;;;;;;5013517;28;20408;-70
2021/12/21 11:45:33;;;;;;;45.63;30.10;;;0.80;99.90;;;;;;5010191;28;20032;-70
2021/12/21 11:48:10;;;;;;;51.17;31.10;;;0.90;99.90;;;;;;5010742;28;20041;-70
2021/12/21 11:50:43;;;;;;;43.03;28.17;;;1.00;99.90;;;;;;5009904;28;20038;-70
2021/12/21 11:53:13;;;;;;;52.25;34.08;;;1.20;99.90;;;;;;5008356;28;20032;-70
2021/12/21 11:55:44;;;;;;;46.03;32.70;;;1.10;99.90;;;;;;5008842;28;20128;-70
2021/12/21 11:58:22;;;;;;;52.87;33.63;;;1.10;99.90;;;;;;5009903;28;20046;-70
2021/12/21 12:00:56;;;;;;;48.87;31.87;;;1.10;99.90;;;;;;5010218;28;20072;-69
2021/12/21 12:03:23;;;;;;;;;;;1.10;99.90;;;;;;4998767;28;20513;-69
2021/12/21 12:05:52;;;;;;;38.70;26.27;;;1.10;99.90;;;;;;5002698;28;19906;-69
2021/12/21 12:08:19;;;;;;;44.60;30.47;;;1.10;99.90;;;;;;5009895;28;20629;-70
2021/12/21 12:10:54;;;;;;;42.77;29.37;;;1.30;99.90;;;;;;5020389;28;20022;-70
2021/12/21 12:13:29;;;;;;;42.70;27.13;;;1.20;99.90;;;;;;5009713;28;20057;-70
2021/12/21 12:15:57;;;;;;;38.17;27.70;;;1.10;99.90;;;;;;5009765;28;20068;-71
2021/12/21 12:18:43;;;;;;;36.63;25.60;;;1.20;99.90;;;;;;5009903;28;20022;-69
2021/12/21 12:21:23;;;;;;;38.33;28.20;;;1.30;99.90;;;;;;5009494;28;20034;-69
2021/12/21 12:23:53;;;;;;;34.83;22.83;;;1.20;99.90;;;;;;5010267;28;20025;-70
2021/12/21 12:26:26;;;;;;;37.43;26.83;;;-0.20;99.90;;;;;;5009840;28;20434;-70
2021/12/21 12:28:56;;;;;;;41.97;26.77;;;1.50;99.90;;;;;;5021011;28;20075;-70
2021/12/21 12:31:33;;;;;;;37.70;23.30;;;1.20;99.90;;;;;;5008889;28;20030;-70
2021/12/21 12:33:59;;;;;;;33.70;23.20;;;;;;;;;;5009423;28;20030;-70
2021/12/21 12:36:49;;;;;;;32.90;22.43;;;1.30;99.90;;;;;;5009858;28;20088;-69
2021/12/21 12:39:26;;;;;;;38.63;22.67;;;1.10;99.90;;;;;;4994393;28;20033;-69
2021/12/21 12:41:51;;;;;;;28.37;20.30;;;1.20;99.90;;;;;;5010238;28;20092;-70
2021/12/21 12:44:24;;;;;;;29.97;19.77;;;1.40;99.90;;;;;;5014782;28;20116;-69
2021/12/21 12:46:57;;;;;;;27.50;20.33;;;1.40;99.90;;;;;;5005076;28;20045;-69
2021/12/21 12:49:28;;;;;;;31.77;17.80;;;1.40;99.90;;;;;;5005281;28;20018;-69
2021/12/21 12:52:14;;;;;;;28.47;19.07;;;1.40;99.90;;;;;;5009558;28;20022;-69
2021/12/21 12:55:03;;;;;;;33.10;20.23;;;1.40;99.90;;;;;;5007363;28;20030;-69
2021/12/21 12:57:33;;;;;;;25.17;17.70;;;1.30;99.90;;;;;;5009097;28;20038;-69
2021/12/21 13:00:19;;;;;;;25.37;18.20;;;1.40;99.90;;;;;;5023191;28;20022;-69
2021/12/21 13:02:56;;;;;;;28.60;18.33;;;1.40;99.90;;;;;;5009550;28;20026;-69
2021/12/21 13:05:39;;;;;;;27.33;19.87;;;1.30;99.90;;;;;;5005901;28;20493;-69
2021/12/21 13:08:14;;;;;;;30.20;19.63;;;1.40;99.90;;;;;;5012751;28;20088;-69
2021/12/21 13:10:53;;;;;;;30.50;18.63;;;1.50;99.90;;;;;;5013391;28;20017;-70
2021/12/21 13:13:19;;;;;;;27.93;17.47;;;1.50;99.90;;;;;;5011564;28;20037;-69
2021/12/21 13:15:50;;;;;;;26.73;18.83;;;1.60;99.90;;;;;;5013343;28;20022;-69
2021/12/21 13:18:18;;;;;;;29.80;20.20;;;1.40;99.90;;;;;;5011721;28;20474;-70
2021/12/21 13:20:47;;;;;;;27.17;19.20;;;1.50;99.90;;;;;;5012251;28;20120;-69
2021/12/21 13:23:13;;;;;;;26.33;17.83;;;;;;;;;;5012880;28;20395;-69
2021/12/21 13:25:40;;;;;;;29.53;17.20;;;1.50;99.90;;;;;;5011991;28;20026;-70
2021/12/21 13:28:12;;;;;;;29.97;19.40;;;1.50;99.90;;;;;;5033207;28;20124;-70
2021/12/21 13:30:46;;;;;;;27.17;18.20;;;1.70;99.90;;;;;;5030748;28;20037;-69
2021/12/21 13:33:21;;;;;;;30.50;17.67;;;1.60;99.90;;;;;;5011432;28;20033;-70
2021/12/21 13:35:47;;;;;;;27.93;17.57;;;1.50;99.90;;;;;;4995990;28;20026;-70
2021/12/21 13:38:17;;;;;;;26.93;15.73;;;1.60;99.90;;;;;;5011090;28;20068;-70
2021/12/21 13:40:43;;;;;;;23.43;15.60;;;1.60;99.90;;;;;;5012627;28;20025;-69
2021/12/21 13:43:13;;;;;;;21.47;16.40;;;1.60;99.90;;;;;;5012917;28;20022;-69
2021/12/21 13:45:42;;;;;;;28.77;17.83;;;1.30;99.90;;;;;;5012431;28;20095;-70
2021/12/21 13:48:17;;;;;;;25.00;18.13;;;1.60;99.90;;;;;;5012084;28;20042;-69
2021/12/21 13:50:43;;;;;;;30.07;19.43;;;1.30;99.90;;;;;;5013149;28;20022;-70